Dades meteomassalio
Diari Summary for Octubre 9, 2017 Units:  Metric    English   Both
« Previous Day
Next Day »
Diari Semanal Mensual Anual Personalitzat
  Maxima: Minima: Mijana:
Temperatura: 25.0 °C 2.2 °C 12.2 °C
Rosada: 6.7 °C -2.8 °C 1.2 °C
Humitat: 74 % 27 % 50 %
Velocitat del vent: 22.2 km/h 0.0 km/h 3.9 km/h
Racha vent: 22.2 km/h - -
Vent:- - SW
Pressio: 1024.3 hPa 1020.9 hPa -
Pluja: 0.0 mm    
Historical Graphs
 
 
Tabular Data for Octubre 9, 2017
Time Temperature Dew Point Pressure Wind Wind Speed Wind Gust Humidity Rainfall Rate (Hourly) solar Conditions
00:06 6.1 °C -2.5 °C 1022.2 hPa ESE 4.8 km/h 4.8 km/h 54 % 0.0 mm 0.0 W/m2 CLR
00:11 5.6 °C -2.8 °C 1022.2 hPa Calm     55 % 0.0 mm 0.0 W/m2 CLR
00:16 5.6 °C -2.8 °C 1022.6 hPa Calm     55 % 0.0 mm 0.0 W/m2 CLR
00:21 5.6 °C -2.6 °C 1022.6 hPa Calm     56 % 0.0 mm 0.0 W/m2 CLR
00:26 5.6 °C -2.3 °C 1022.6 hPa Calm     57 % 0.0 mm 0.0 W/m2 CLR
00:31 5.6 °C -2.3 °C 1022.6 hPa Calm     57 % 0.0 mm 0.0 W/m2 CLR
00:37 5.6 °C -2.3 °C 1022.2 hPa Calm     57 % 0.0 mm 0.0 W/m2 CLR
00:42 5.6 °C -2.3 °C 1022.6 hPa Calm     57 % 0.0 mm 0.0 W/m2 CLR
00:47 5.6 °C -2.3 °C 1022.2 hPa Calm     57 % 0.0 mm 0.0 W/m2 CLR
00:52 6.1 °C -1.6 °C 1022.6 hPa Calm     58 % 0.0 mm 0.0 W/m2 CLR
00:57 6.1 °C -1.8 °C 1022.2 hPa Calm     57 % 0.0 mm 0.0 W/m2 CLR
01:02 6.1 °C -1.6 °C 1022.6 hPa Calm     58 % 0.0 mm 0.0 W/m2 CLR
01:07 6.1 °C -1.6 °C 1022.6 hPa Calm     58 % 0.0 mm 0.0 W/m2 CLR
01:12 6.1 °C -1.6 °C 1022.6 hPa Calm     58 % 0.0 mm 0.0 W/m2 CLR
01:17 5.6 °C -1.8 °C 1022.6 hPa Calm     59 % 0.0 mm 0.0 W/m2 CLR
01:22 5.6 °C -1.8 °C 1022.6 hPa Calm     59 % 0.0 mm 0.0 W/m2 CLR
01:27 5.6 °C -1.6 °C 1022.6 hPa Calm     60 % 0.0 mm 0.0 W/m2 CLR
01:32 5.6 °C -1.6 °C 1022.6 hPa Calm     60 % 0.0 mm 0.0 W/m2 CLR
01:37 5.0 °C -2.1 °C 1022.6 hPa Calm     60 % 0.0 mm 0.0 W/m2 CLR
01:42 5.0 °C -1.9 °C 1022.6 hPa Calm     61 % 0.0 mm 0.0 W/m2 CLR
01:47 5.0 °C -1.7 °C 1022.6 hPa Calm     62 % 0.0 mm 0.0 W/m2 CLR
01:52 5.0 °C -1.7 °C 1022.6 hPa Calm     62 % 0.0 mm 0.0 W/m2 CLR
01:57 5.0 °C -1.7 °C 1022.6 hPa Calm     62 % 0.0 mm 0.0 W/m2 CLR
02:07 4.4 °C -2.0 °C 1022.6 hPa Calm     63 % 0.0 mm 0.0 W/m2 CLR
02:12 4.4 °C -2.0 °C 1022.6 hPa Calm     63 % 0.0 mm 0.0 W/m2 CLR
02:17 4.4 °C -1.8 °C 1022.6 hPa Calm     64 % 0.0 mm 0.0 W/m2 CLR
02:22 4.4 °C -1.6 °C 1022.6 hPa Calm     65 % 0.0 mm 0.0 W/m2 CLR
02:27 3.9 °C -2.1 °C 1022.6 hPa Calm     65 % 0.0 mm 0.0 W/m2 CLR
02:32 3.9 °C -2.1 °C 1022.6 hPa Calm     65 % 0.0 mm 0.0 W/m2 CLR
02:37 3.9 °C -2.3 °C 1022.6 hPa SE 5.6 km/h 5.6 km/h 64 % 0.0 mm 0.0 W/m2 CLR
02:42 3.9 °C -2.5 °C 1022.6 hPa Calm     63 % 0.0 mm 0.0 W/m2 CLR
02:47 3.9 °C -2.3 °C 1022.6 hPa Calm     64 % 0.0 mm 0.0 W/m2 CLR
02:52 3.9 °C -2.3 °C 1022.6 hPa Calm     64 % 0.0 mm 0.0 W/m2 CLR
03:02 3.9 °C -2.3 °C 1022.6 hPa Calm     64 % 0.0 mm 0.0 W/m2 CLR
03:07 3.9 °C -2.3 °C 1022.6 hPa Calm     64 % 0.0 mm 0.0 W/m2 CLR
03:12 3.9 °C -2.3 °C 1022.6 hPa Calm     64 % 0.0 mm 0.0 W/m2 CLR
03:17 3.9 °C -2.3 °C 1022.6 hPa Calm     64 % 0.0 mm 0.0 W/m2 CLR
03:22 3.9 °C -2.3 °C 1022.6 hPa Calm     64 % 0.0 mm 0.0 W/m2 CLR
03:27 3.9 °C -2.1 °C 1022.6 hPa Calm     65 % 0.0 mm 0.0 W/m2 CLR
03:32 3.9 °C -2.1 °C 1022.2 hPa Calm     65 % 0.0 mm 0.0 W/m2 CLR
03:37 3.9 °C -2.1 °C 1022.2 hPa Calm     65 % 0.0 mm 0.0 W/m2 CLR
03:42 3.9 °C -2.1 °C 1022.2 hPa Calm     65 % 0.0 mm 0.0 W/m2 CLR
03:47 3.9 °C -1.9 °C 1022.2 hPa Calm     66 % 0.0 mm 0.0 W/m2 CLR
03:53 3.3 °C -2.4 °C 1022.2 hPa Calm     66 % 0.0 mm 0.0 W/m2 CLR
03:58 3.3 °C -2.4 °C 1022.2 hPa Calm     66 % 0.0 mm 0.0 W/m2 CLR
04:03 3.3 °C -2.4 °C 1022.2 hPa Calm     66 % 0.0 mm 0.0 W/m2 CLR
04:08 3.3 °C -2.4 °C 1022.2 hPa Calm     66 % 0.0 mm 0.0 W/m2 CLR
04:13 3.3 °C -2.2 °C 1022.2 hPa Calm     67 % 0.0 mm 0.0 W/m2 CLR
04:18 3.3 °C -2.2 °C 1022.2 hPa Calm     67 % 0.0 mm 0.0 W/m2 CLR
04:23 3.3 °C -2.2 °C 1022.2 hPa Calm     67 % 0.0 mm 0.0 W/m2 CLR
04:28 3.3 °C -2.2 °C 1022.2 hPa Calm     67 % 0.0 mm 0.0 W/m2 CLR
04:33 3.3 °C -2.4 °C 1022.2 hPa Calm     66 % 0.0 mm 0.0 W/m2 CLR
04:38 3.3 °C -2.2 °C 1022.2 hPa Calm     67 % 0.0 mm 0.0 W/m2 CLR
04:43 3.3 °C -2.2 °C 1022.2 hPa Calm     67 % 0.0 mm 0.0 W/m2 CLR
04:48 3.3 °C -2.2 °C 1022.6 hPa Calm     67 % 0.0 mm 0.0 W/m2 CLR
04:53 2.8 °C -2.7 °C 1022.6 hPa Calm     67 % 0.0 mm 0.0 W/m2 CLR
04:58 2.8 °C -2.6 °C 1022.6 hPa Calm     68 % 0.0 mm 0.0 W/m2 CLR
05:03 2.8 °C -2.6 °C 1022.6 hPa Calm     68 % 0.0 mm 0.0 W/m2 CLR
05:08 2.8 °C -2.6 °C 1022.6 hPa Calm     68 % 0.0 mm 0.0 W/m2 CLR
05:14 2.8 °C -2.6 °C 1022.6 hPa Calm     68 % 0.0 mm 0.0 W/m2 CLR
05:23 2.8 °C -2.6 °C 1022.6 hPa Calm     68 % 0.0 mm 0.0 W/m2 CLR
05:26 2.8 °C -2.6 °C 1022.6 hPa Calm     68 % 0.0 mm 0.0 W/m2 CLR
05:28 2.8 °C -2.6 °C 1022.6 hPa Calm     68 % 0.0 mm 0.0 W/m2 CLR
05:33 2.8 °C -2.3 °C 1022.6 hPa Calm     69 % 0.0 mm 0.0 W/m2 CLR
05:35 2.8 °C -2.3 °C 1022.6 hPa Calm     69 % 0.0 mm 0.0 W/m2 CLR
05:40 2.8 °C -2.3 °C 1022.6 hPa Calm     69 % 0.0 mm 0.0 W/m2 CLR
05:45 2.8 °C -2.3 °C 1022.6 hPa Calm     69 % 0.0 mm 0.0 W/m2 CLR
05:50 2.8 °C -2.3 °C 1022.6 hPa Calm     69 % 0.0 mm 0.0 W/m2 CLR
06:05 2.8 °C -2.3 °C 1022.6 hPa Calm     69 % 0.0 mm 0.0 W/m2 CLR
06:10 2.8 °C -2.2 °C 1022.9 hPa Calm     70 % 0.0 mm 0.0 W/m2 CLR
06:15 2.8 °C -2.2 °C 1022.9 hPa Calm     70 % 0.0 mm 0.0 W/m2 CLR
06:20 2.2 °C -2.7 °C 1022.9 hPa Calm     70 % 0.0 mm 0.0 W/m2 CLR
06:25 2.2 °C -2.7 °C 1022.9 hPa Calm     70 % 0.0 mm 0.0 W/m2 CLR
06:30 2.2 °C -2.7 °C 1022.9 hPa Calm     70 % 0.0 mm 0.0 W/m2 CLR
06:35 2.8 °C -2.2 °C 1022.9 hPa Calm     70 % 0.0 mm 0.0 W/m2 CLR
06:40 2.8 °C -2.2 °C 1022.9 hPa Calm     70 % 0.0 mm 0.0 W/m2 CLR
06:45 2.8 °C -2.2 °C 1022.6 hPa Calm     70 % 0.0 mm 0.0 W/m2 CLR
06:50 2.8 °C -1.9 °C 1022.6 hPa Calm     71 % 0.0 mm 0.0 W/m2 CLR
06:55 2.8 °C -1.9 °C 1022.6 hPa Calm     71 % 0.0 mm 0.0 W/m2 CLR
07:00 2.8 °C -1.9 °C 1022.6 hPa Calm     71 % 0.0 mm 0.0 W/m2 CLR
07:05 2.8 °C -1.9 °C 1022.6 hPa Calm     71 % 0.0 mm 0.0 W/m2 CLR
07:10 2.8 °C -1.8 °C 1022.6 hPa Calm     72 % 0.0 mm 0.0 W/m2 CLR
07:15 2.8 °C -1.8 °C 1022.6 hPa Calm     72 % 0.0 mm 0.0 W/m2 CLR
07:20 2.2 °C -2.3 °C 1022.6 hPa Calm     72 % 0.0 mm 0.0 W/m2 CLR
07:25 2.2 °C -2.1 °C 1022.6 hPa Calm     73 % 0.0 mm 0.0 W/m2 CLR
07:30 2.2 °C -2.1 °C 1022.9 hPa Calm     73 % 0.0 mm 0.0 W/m2 CLR
07:36 2.2 °C -2.1 °C 1022.6 hPa Calm     73 % 0.0 mm 0.0 W/m2 CLR
07:40 2.2 °C -2.1 °C 1022.9 hPa North 8.0 km/h 8.0 km/h 73 % 0.0 mm 0.0 W/m2 CLR
07:51 2.2 °C -1.9 °C 1022.9 hPa Calm     74 % 0.0 mm 0.0 W/m2 CLR
07:56 2.2 °C -2.1 °C 1022.9 hPa Calm     73 % 0.0 mm 0.0 W/m2 CLR
08:00 2.2 °C -2.1 °C 1022.9 hPa Calm     73 % 0.0 mm 0.0 W/m2 OVC
08:05 2.2 °C -1.9 °C 1022.9 hPa Calm     74 % 0.0 mm 5.0 W/m2 OVC
08:10 2.2 °C -1.9 °C 1022.9 hPa Calm     74 % 0.0 mm 7.0 W/m2 BKN
08:16 2.2 °C -1.9 °C 1022.9 hPa Calm     74 % 0.0 mm 11.0 W/m2 BKN
08:21 2.2 °C -2.1 °C 1023.2 hPa Calm     73 % 0.0 mm 12.0 W/m2 BKN
08:26 2.2 °C -2.5 °C 1023.2 hPa Calm     71 % 0.0 mm 14.0 W/m2 BKN
08:31 2.8 °C -2.2 °C 1023.2 hPa Calm     70 % 0.0 mm 18.0 W/m2 BKN
08:36 2.8 °C -2.7 °C 1023.2 hPa Calm     67 % 0.0 mm 25.0 W/m2 BKN
08:46 2.8 °C -2.3 °C 1023.6 hPa Calm     69 % 0.0 mm 49.0 W/m2 SCT
08:51 3.3 °C -1.8 °C 1023.6 hPa Calm     69 % 0.0 mm 51.0 W/m2 SCT
08:56 3.3 °C -2.0 °C 1023.6 hPa Calm     68 % 0.0 mm 72.0 W/m2 FEW
09:01 3.3 °C -2.4 °C 1023.6 hPa Calm     66 % 0.0 mm 83.0 W/m2 FEW
09:06 3.9 °C -2.1 °C 1023.6 hPa Calm     65 % 0.0 mm 91.0 W/m2 FEW
09:11 4.4 °C -1.8 °C 1023.6 hPa Calm     64 % 0.0 mm 109.0 W/m2 CLR
09:16 4.4 °C -1.8 °C 1023.6 hPa Calm     64 % 0.0 mm 142.0 W/m2 CLR
09:21 5.0 °C -1.7 °C 1023.6 hPa Calm     62 % 0.0 mm 114.0 W/m2 CLR
09:26 5.6 °C -1.4 °C 1023.6 hPa Calm     61 % 0.0 mm 183.0 W/m2 CLR
09:31 5.6 °C -1.6 °C 1023.6 hPa Calm     60 % 0.0 mm 200.0 W/m2 CLR
09:36 6.7 °C -0.8 °C 1023.6 hPa Calm     59 % 0.0 mm 218.0 W/m2 CLR
09:41 6.7 °C -1.0 °C 1023.9 hPa Calm     58 % 0.0 mm 234.0 W/m2 CLR
09:46 7.2 °C -1.0 °C 1023.9 hPa Calm     56 % 0.0 mm 251.0 W/m2 CLR
09:51 8.3 °C 0.3 °C 1023.9 hPa Calm     57 % 0.0 mm 267.0 W/m2 CLR
09:56 9.4 °C 0.6 °C 1023.9 hPa SW 13.0 km/h 13.0 km/h 54 % 0.0 mm 283.0 W/m2 CLR
10:01 10.0 °C 0.1 °C 1023.9 hPa WSW 14.8 km/h 14.8 km/h 50 % 0.0 mm 299.0 W/m2 CLR
10:11 12.8 °C 1.7 °C 1024.3 hPa WSW 16.7 km/h 16.7 km/h 47 % 0.0 mm 329.0 W/m2 CLR
10:16 13.9 °C 2.8 °C 1023.9 hPa SW 13.0 km/h 13.0 km/h 47 % 0.0 mm 341.0 W/m2 CLR
10:21 14.4 °C 3.3 °C 1023.9 hPa WSW 16.7 km/h 16.7 km/h 47 % 0.0 mm 355.0 W/m2 CLR
10:26 15.0 °C 3.4 °C 1023.9 hPa SW 11.1 km/h 11.1 km/h 46 % 0.0 mm 367.0 W/m2 CLR
10:31 15.6 °C 3.7 °C 1023.9 hPa SSW 16.7 km/h 16.7 km/h 45 % 0.0 mm 385.0 W/m2 CLR
10:36 16.1 °C 3.8 °C 1024.3 hPa SSW 16.7 km/h 16.7 km/h 44 % 0.0 mm 399.0 W/m2 CLR
10:41 16.1 °C 4.2 °C 1024.3 hPa WSW 13.0 km/h 13.0 km/h 45 % 0.0 mm 411.0 W/m2 CLR
10:46 16.1 °C 3.8 °C 1024.3 hPa SW 11.3 km/h 11.3 km/h 44 % 0.0 mm 424.0 W/m2 CLR
10:51 16.7 °C 4.3 °C 1023.9 hPa SW 14.8 km/h 14.8 km/h 44 % 0.0 mm 438.0 W/m2 CLR
10:56 16.7 °C 4.3 °C 1023.9 hPa SW 9.3 km/h 9.3 km/h 44 % 0.0 mm 450.0 W/m2 CLR
11:01 16.7 °C 4.0 °C 1023.9 hPa SSW 11.3 km/h 11.3 km/h 43 % 0.0 mm 462.0 W/m2 CLR
11:06 16.7 °C 4.0 °C 1023.9 hPa SW 7.4 km/h 7.4 km/h 43 % 0.0 mm 475.0 W/m2 CLR
11:11 17.2 °C 4.5 °C 1023.9 hPa SSW 13.0 km/h 13.0 km/h 43 % 0.0 mm 487.0 W/m2 CLR
11:16 17.2 °C 4.5 °C 1023.9 hPa SW 11.1 km/h 11.1 km/h 43 % 0.0 mm 501.0 W/m2 CLR
11:21 17.2 °C 4.5 °C 1023.9 hPa SSW 11.1 km/h 11.1 km/h 43 % 0.0 mm 510.0 W/m2 CLR
11:26 17.2 °C 4.8 °C 1023.9 hPa SSE 14.8 km/h 14.8 km/h 44 % 0.0 mm 520.0 W/m2 CLR
11:31 17.8 °C 5.0 °C 1023.9 hPa SSW 16.7 km/h 16.7 km/h 43 % 0.0 mm 531.0 W/m2 CLR
11:36 17.8 °C 5.0 °C 1023.9 hPa SSW 16.7 km/h 16.7 km/h 43 % 0.0 mm 541.0 W/m2 CLR
11:41 18.3 °C 5.2 °C 1023.9 hPa SSW 14.8 km/h 14.8 km/h 42 % 0.0 mm 552.0 W/m2 CLR
11:46 18.3 °C 5.2 °C 1023.9 hPa WSW 13.0 km/h 13.0 km/h 42 % 0.0 mm 561.0 W/m2 CLR
11:51 18.3 °C 5.2 °C 1023.9 hPa SW 9.7 km/h 9.7 km/h 42 % 0.0 mm 570.0 W/m2 CLR
11:56 18.3 °C 4.8 °C 1023.9 hPa SSW 9.3 km/h 9.3 km/h 41 % 0.0 mm 578.0 W/m2 CLR
12:01 18.9 °C 5.0 °C 1023.9 hPa SSW 11.1 km/h 11.1 km/h 40 % 0.0 mm 585.0 W/m2 CLR
12:06 19.4 °C 5.5 °C 1023.9 hPa South 14.8 km/h 14.8 km/h 40 % 0.0 mm 596.0 W/m2 CLR
12:11 19.4 °C 5.5 °C 1023.9 hPa South 18.5 km/h 18.5 km/h 40 % 0.0 mm 603.0 W/m2 CLR
12:16 20.0 °C 6.0 °C 1023.9 hPa SW 18.5 km/h 18.5 km/h 40 % 0.0 mm 610.0 W/m2 CLR
12:21 20.0 °C 6.0 °C 1023.6 hPa SW 14.5 km/h 14.5 km/h 40 % 0.0 mm 619.0 W/m2 CLR
12:26 20.0 °C 5.6 °C 1023.6 hPa SSW 11.3 km/h 11.3 km/h 39 % 0.0 mm 624.0 W/m2 CLR
12:31 20.6 °C 6.5 °C 1023.6 hPa South 16.7 km/h 16.7 km/h 40 % 0.0 mm 631.0 W/m2 CLR
12:36 20.6 °C 5.7 °C 1023.6 hPa SSW 14.8 km/h 14.8 km/h 38 % 0.0 mm 635.0 W/m2 CLR
12:41 21.1 °C 6.2 °C 1023.6 hPa SSW 18.5 km/h 18.5 km/h 38 % 0.0 mm 642.0 W/m2 CLR
12:46 20.6 °C 6.1 °C 1023.6 hPa SW 14.8 km/h 14.8 km/h 39 % 0.0 mm 647.0 W/m2 CLR
12:51 21.1 °C 6.2 °C 1023.6 hPa South 18.5 km/h 18.5 km/h 38 % 0.0 mm 652.0 W/m2 CLR
12:56 21.1 °C 6.2 °C 1023.6 hPa SSW 13.0 km/h 13.0 km/h 38 % 0.0 mm 656.0 W/m2 CLR
13:01 21.1 °C 6.2 °C 1023.6 hPa SW 18.5 km/h 18.5 km/h 38 % 0.0 mm 659.0 W/m2 CLR
13:06 21.7 °C 6.7 °C 1023.6 hPa SSW 22.2 km/h 22.2 km/h 38 % 0.0 mm 663.0 W/m2 CLR
13:11 21.7 °C 6.3 °C 1023.6 hPa WSW 11.1 km/h 11.1 km/h 37 % 0.0 mm 668.0 W/m2 CLR
13:16 21.7 °C 6.3 °C 1023.2 hPa SW 16.7 km/h 16.7 km/h 37 % 0.0 mm 670.0 W/m2 CLR
13:21 21.7 °C 5.9 °C 1023.2 hPa SW 18.5 km/h 18.5 km/h 36 % 0.0 mm 673.0 W/m2 CLR
13:26 22.2 °C 6.4 °C 1023.2 hPa SSW 11.1 km/h 11.1 km/h 36 % 0.0 mm 675.0 W/m2 CLR
13:31 21.7 °C 5.9 °C 1023.2 hPa SSW 13.0 km/h 13.0 km/h 36 % 0.0 mm 677.0 W/m2 CLR
13:36 22.2 °C 6.4 °C 1023.2 hPa WSW 14.8 km/h 14.8 km/h 36 % 0.0 mm 682.0 W/m2 CLR
13:41 22.2 °C 5.6 °C 1022.9 hPa SW 14.5 km/h 14.5 km/h 34 % 0.0 mm 679.0 W/m2 CLR
13:46 22.2 °C 6.0 °C 1022.9 hPa WSW 11.1 km/h 11.1 km/h 35 % 0.0 mm 679.0 W/m2 CLR
13:51 22.8 °C 6.1 °C 1022.9 hPa WSW 12.9 km/h 12.9 km/h 34 % 0.0 mm 679.0 W/m2 CLR
13:56 22.8 °C 5.7 °C 1022.6 hPa SW 14.8 km/h 14.8 km/h 33 % 0.0 mm 679.0 W/m2 CLR
14:01 22.8 °C 6.1 °C 1022.6 hPa WSW 13.0 km/h 13.0 km/h 34 % 0.0 mm 679.0 W/m2 CLR
14:06 23.3 °C 5.7 °C 1022.6 hPa SW 8.0 km/h 8.0 km/h 32 % 0.0 mm 679.0 W/m2 CLR
14:11 23.3 °C 5.7 °C 1022.6 hPa WSW 11.3 km/h 11.3 km/h 32 % 0.0 mm 675.0 W/m2 CLR
14:16 23.3 °C 5.2 °C 1022.2 hPa SSW 9.3 km/h 9.3 km/h 31 % 0.0 mm 675.0 W/m2 CLR
14:21 23.3 °C 6.2 °C 1022.2 hPa SW 13.0 km/h 13.0 km/h 33 % 0.0 mm 671.0 W/m2 CLR
14:22 23.3 °C 5.7 °C 1022.2 hPa SW 13.0 km/h 13.0 km/h 32 % 0.0 mm 671.0 W/m2 CLR
14:27 23.3 °C 5.2 °C 1022.2 hPa SSW 13.0 km/h 13.0 km/h 31 % 0.0 mm 668.0 W/m2 CLR
14:32 23.3 °C 5.2 °C 1022.2 hPa SSW 7.4 km/h 7.4 km/h 31 % 0.0 mm 664.0 W/m2 CLR
14:37 23.3 °C 4.8 °C 1022.2 hPa South 9.3 km/h   30 % 0.0 mm 663.0 W/m2 CLR
14:42 23.9 °C 4.8 °C 1022.2 hPa SSW 7.4 km/h 7.4 km/h 29 % 0.0 mm 657.0 W/m2 CLR
14:47 23.9 °C 5.3 °C 1021.9 hPa West 11.3 km/h 11.3 km/h 30 % 0.0 mm 654.0 W/m2 CLR
14:52 23.9 °C 4.8 °C 1021.9 hPa SSW 14.8 km/h 14.8 km/h 29 % 0.0 mm 647.0 W/m2 CLR
14:57 23.9 °C 4.8 °C 1021.9 hPa Calm     29 % 0.0 mm 643.0 W/m2 CLR
15:02 24.4 °C 5.2 °C 1021.9 hPa SW 7.4 km/h 7.4 km/h 29 % 0.0 mm 638.0 W/m2 CLR
15:07 24.4 °C 4.7 °C 1021.9 hPa West 9.3 km/h 9.3 km/h 28 % 0.0 mm 631.0 W/m2 CLR
15:12 24.4 °C 4.7 °C 1021.9 hPa Calm     28 % 0.0 mm 624.0 W/m2 CLR
15:17 23.9 °C 4.3 °C 1021.9 hPa South 13.0 km/h 13.0 km/h 28 % 0.0 mm 619.0 W/m2 CLR
15:22 24.4 °C 4.7 °C 1021.6 hPa West 16.7 km/h 16.7 km/h 28 % 0.0 mm 610.0 W/m2 CLR
15:27 24.4 °C 4.2 °C 1021.6 hPa West 1.9 km/h 1.9 km/h 27 % 0.0 mm 605.0 W/m2 CLR
15:32 24.4 °C 4.2 °C 1021.6 hPa Calm     27 % 0.0 mm 596.0 W/m2 CLR
15:37 24.4 °C 4.7 °C 1021.6 hPa West 14.8 km/h 14.8 km/h 28 % 0.0 mm 587.0 W/m2 CLR
15:42 24.4 °C 4.2 °C 1021.6 hPa WSW 5.6 km/h 5.6 km/h 27 % 0.0 mm 578.0 W/m2 CLR
15:47 25.0 °C 4.7 °C 1021.6 hPa SW 7.4 km/h 7.4 km/h 27 % 0.0 mm 571.0 W/m2 CLR
15:52 23.9 °C 4.3 °C 1021.6 hPa West 1.9 km/h 1.9 km/h 28 % 0.0 mm 561.0 W/m2 CLR
15:57 23.9 °C 3.7 °C 1021.2 hPa WSW 11.1 km/h 11.1 km/h 27 % 0.0 mm 548.0 W/m2 CLR
16:02 24.4 °C 4.7 °C 1021.6 hPa Calm     28 % 0.0 mm 540.0 W/m2 CLR
16:07 24.4 °C 4.7 °C 1021.2 hPa West 9.3 km/h 9.3 km/h 28 % 0.0 mm 531.0 W/m2 CLR
16:12 23.9 °C 4.3 °C 1021.2 hPa Calm     28 % 0.0 mm 520.0 W/m2 CLR
16:17 23.9 °C 4.8 °C 1021.2 hPa West 16.7 km/h 16.7 km/h 29 % 0.0 mm 506.0 W/m2 CLR
16:22 24.4 °C 4.7 °C 1021.2 hPa Calm     28 % 0.0 mm 496.0 W/m2 CLR
16:27 24.4 °C 5.2 °C 1021.2 hPa Calm     29 % 0.0 mm 483.0 W/m2 CLR
16:32 24.4 °C 5.2 °C 1021.2 hPa West 9.7 km/h 9.7 km/h 29 % 0.0 mm 473.0 W/m2 CLR
16:37 24.4 °C 5.2 °C 1021.2 hPa NW 9.3 km/h 9.3 km/h 29 % 0.0 mm 457.0 W/m2 CLR
16:42 23.9 °C 4.8 °C 1021.2 hPa WNW 13.0 km/h 13.0 km/h 29 % 0.0 mm 446.0 W/m2 CLR
16:47 23.9 °C 4.8 °C 1021.2 hPa Calm     29 % 0.0 mm 434.0 W/m2 CLR
16:52 24.4 °C 5.2 °C 1021.2 hPa WNW 13.0 km/h 13.0 km/h 29 % 0.0 mm 420.0 W/m2 CLR
16:57 24.4 °C 5.7 °C 1021.2 hPa West 11.3 km/h 11.3 km/h 30 % 0.0 mm 406.0 W/m2 CLR
17:02 24.4 °C 5.7 °C 1021.2 hPa West 11.3 km/h 11.3 km/h 30 % 0.0 mm 390.0 W/m2 CLR
17:07 23.9 °C 4.8 °C 1021.2 hPa Calm     29 % 0.0 mm 378.0 W/m2 CLR
17:12 23.9 °C 5.3 °C 1020.9 hPa WNW 5.6 km/h 5.6 km/h 30 % 0.0 mm 364.0 W/m2 CLR
17:17 24.4 °C 5.7 °C 1021.2 hPa WNW 11.1 km/h 11.1 km/h 30 % 0.0 mm 352.0 W/m2 CLR
17:22 24.4 °C 5.7 °C 1020.9 hPa Calm     30 % 0.0 mm 334.0 W/m2 CLR
17:27 23.9 °C 4.8 °C 1020.9 hPa WNW 5.6 km/h 5.6 km/h 29 % 0.0 mm 320.0 W/m2 CLR
17:32 23.9 °C 5.3 °C 1020.9 hPa WNW 13.0 km/h 13.0 km/h 30 % 0.0 mm 309.0 W/m2 CLR
17:37 23.9 °C 5.3 °C 1020.9 hPa Calm     30 % 0.0 mm 294.0 W/m2 CLR
17:42 23.9 °C 4.8 °C 1020.9 hPa West 3.7 km/h 3.7 km/h 29 % 0.0 mm 276.0 W/m2 CLR
17:47 23.9 °C 4.8 °C 1020.9 hPa Calm     29 % 0.0 mm 260.0 W/m2 CLR
17:52 23.3 °C 4.8 °C 1020.9 hPa West 5.6 km/h 5.6 km/h 30 % 0.0 mm 243.0 W/m2 CLR
17:57 23.3 °C 4.8 °C 1020.9 hPa West 5.6 km/h 5.6 km/h 30 % 0.0 mm 225.0 W/m2 CLR
18:07 22.8 °C 4.8 °C 1020.9 hPa West 5.6 km/h 5.6 km/h 31 % 0.0 mm 186.0 W/m2 CLR
18:12 22.8 °C 4.8 °C 1020.9 hPa Calm     31 % 0.0 mm 169.0 W/m2 CLR
18:17 22.2 °C 4.3 °C 1020.9 hPa West 9.3 km/h 9.3 km/h 31 % 0.0 mm 151.0 W/m2 CLR
18:22 21.7 °C 3.8 °C 1020.9 hPa WNW 5.6 km/h 5.6 km/h 31 % 0.0 mm 134.0 W/m2 CLR
18:27 21.1 °C 3.3 °C 1020.9 hPa Calm     31 % 0.0 mm 114.0 W/m2 CLR
18:32 21.1 °C 3.8 °C 1020.9 hPa WNW 5.6 km/h 5.6 km/h 32 % 0.0 mm 98.0 W/m2 CLR
18:37 20.6 °C 3.3 °C 1020.9 hPa Calm     32 % 0.0 mm 81.0 W/m2 CLR
18:42 20.0 °C 2.8 °C 1020.9 hPa Calm     32 % 0.0 mm 62.0 W/m2 FEW
18:47 19.4 °C 2.3 °C 1020.9 hPa Calm     32 % 0.0 mm 54.0 W/m2 SCT
18:52 18.9 °C 1.8 °C 1020.9 hPa Calm     32 % 0.0 mm 44.0 W/m2 SCT
18:57 18.3 °C 1.3 °C 1020.9 hPa Calm     32 % 0.0 mm 32.0 W/m2 BKN
19:02 17.8 °C 1.3 °C 1021.2 hPa Calm     33 % 0.0 mm 23.0 W/m2 BKN
19:07 17.2 °C 0.8 °C 1021.2 hPa Calm     33 % 0.0 mm 14.0 W/m2 BKN
19:13 16.7 °C 0.3 °C 1021.2 hPa Calm     33 % 0.0 mm 12.0 W/m2 BKN
19:18 16.1 °C 0.2 °C 1021.2 hPa Calm     34 % 0.0 mm 11.0 W/m2 BKN
19:23 15.6 °C 0.1 °C 1021.2 hPa Calm     35 % 0.0 mm 7.0 W/m2 BKN
19:28 15.0 °C -0.3 °C 1021.2 hPa Calm     35 % 0.0 mm 5.0 W/m2 OVC
19:33 15.0 °C 0.1 °C 1021.2 hPa Calm     36 % 0.0 mm 0.0 W/m2 OVC
19:38 15.0 °C 0.1 °C 1021.2 hPa Calm     36 % 0.0 mm 0.0 W/m2 OVC
19:43 15.0 °C 0.4 °C 1021.2 hPa Calm     37 % 0.0 mm 0.0 W/m2 CLR
19:48 15.0 °C 0.8 °C 1021.6 hPa Calm     38 % 0.0 mm 0.0 W/m2 CLR
19:53 14.4 °C 0.7 °C 1021.2 hPa Calm     39 % 0.0 mm 0.0 W/m2 CLR
19:58 14.4 °C 1.0 °C 1021.6 hPa Calm     40 % 0.0 mm 0.0 W/m2 CLR
20:03 13.9 °C 0.8 °C 1021.6 hPa Calm     41 % 0.0 mm 0.0 W/m2 CLR
20:08 13.9 °C 1.5 °C 1021.6 hPa Calm     43 % 0.0 mm 0.0 W/m2 CLR
20:13 13.3 °C 1.0 °C 1021.6 hPa Calm     43 % 0.0 mm 0.0 W/m2 CLR
20:18 13.3 °C 1.3 °C 1021.6 hPa Calm     44 % 0.0 mm 0.0 W/m2 CLR
20:23 12.8 °C 1.1 °C 1021.6 hPa Calm     45 % 0.0 mm 0.0 W/m2 CLR
20:28 12.8 °C 1.4 °C 1021.6 hPa Calm     46 % 0.0 mm 0.0 W/m2 CLR
20:33 12.2 °C 1.2 °C 1021.6 hPa Calm     47 % 0.0 mm 0.0 W/m2 CLR
20:38 12.2 °C 1.2 °C 1021.6 hPa Calm     47 % 0.0 mm 0.0 W/m2 CLR
20:43 12.2 °C 1.5 °C 1021.6 hPa Calm     48 % 0.0 mm 0.0 W/m2 CLR
20:48 12.2 °C 1.5 °C 1021.6 hPa Calm     48 % 0.0 mm 0.0 W/m2 CLR
20:53 11.7 °C 1.3 °C 1021.6 hPa Calm     49 % 0.0 mm 0.0 W/m2 CLR
20:58 11.7 °C 1.3 °C 1021.6 hPa Calm     49 % 0.0 mm 0.0 W/m2 CLR
21:03 11.7 °C 1.6 °C 1021.9 hPa Calm     50 % 0.0 mm 0.0 W/m2 CLR
21:08 11.1 °C 1.1 °C 1021.6 hPa Calm     50 % 0.0 mm 0.0 W/m2 CLR
21:13 11.7 °C 1.6 °C 1021.9 hPa Calm     50 % 0.0 mm 0.0 W/m2 CLR
21:18 11.7 °C 1.8 °C 1021.9 hPa Calm     51 % 0.0 mm 0.0 W/m2 CLR
21:23 11.7 °C 2.1 °C 1021.9 hPa Calm     52 % 0.0 mm 0.0 W/m2 CLR
21:28 11.1 °C 1.3 °C 1021.9 hPa Calm     51 % 0.0 mm 0.0 W/m2 CLR
21:33 11.1 °C 1.3 °C 1021.9 hPa Calm     51 % 0.0 mm 0.0 W/m2 CLR
21:38 11.1 °C 1.3 °C 1021.9 hPa Calm     51 % 0.0 mm 0.0 W/m2 CLR
21:43 10.6 °C 1.1 °C 1022.2 hPa Calm     52 % 0.0 mm 0.0 W/m2 CLR
21:48 10.6 °C 1.4 °C 1022.2 hPa Calm     53 % 0.0 mm 0.0 W/m2 CLR
21:58 10.0 °C 0.8 °C 1022.2 hPa Calm     53 % 0.0 mm 0.0 W/m2 CLR
22:03 9.4 °C 0.3 °C 1022.2 hPa Calm     53 % 0.0 mm 0.0 W/m2 CLR
22:08 9.4 °C 0.3 °C 1022.2 hPa Calm     53 % 0.0 mm 0.0 W/m2 CLR
22:13 10.6 °C 1.4 °C 1022.2 hPa Calm     53 % 0.0 mm 0.0 W/m2 CLR
22:18 10.6 °C 1.4 °C 1022.2 hPa Calm     53 % 0.0 mm 0.0 W/m2 CLR
22:23 10.0 °C 0.8 °C 1022.6 hPa Calm     53 % 0.0 mm 0.0 W/m2 CLR
22:28 10.0 °C 0.8 °C 1022.6 hPa Calm     53 % 0.0 mm 0.0 W/m2 CLR
22:33 9.4 °C 0.3 °C 1022.6 hPa Calm     53 % 0.0 mm 0.0 W/m2 CLR
22:38 9.4 °C 0.6 °C 1022.6 hPa Calm     54 % 0.0 mm 0.0 W/m2 CLR
22:43 9.4 °C 0.6 °C 1022.6 hPa Calm     54 % 0.0 mm 0.0 W/m2 CLR
22:48 9.4 °C 0.6 °C 1022.6 hPa Calm     54 % 0.0 mm 0.0 W/m2 CLR
22:53 9.4 °C 0.6 °C 1022.6 hPa Calm     54 % 0.0 mm 0.0 W/m2 CLR
22:58 8.9 °C 0.3 °C 1022.6 hPa Calm     55 % 0.0 mm 0.0 W/m2 CLR
23:03 8.9 °C 0.6 °C 1022.6 hPa Calm     56 % 0.0 mm 0.0 W/m2 CLR
23:08 8.3 °C 0.1 °C 1022.6 hPa Calm     56 % 0.0 mm 0.0 W/m2 CLR
23:13 8.9 °C 0.6 °C 1022.6 hPa Calm     56 % 0.0 mm 0.0 W/m2 CLR
23:23 9.4 °C 1.3 °C 1022.6 hPa Calm     57 % 0.0 mm 0.0 W/m2 CLR
23:28 8.9 °C 0.8 °C 1022.6 hPa Calm     57 % 0.0 mm 0.0 W/m2 CLR
23:33 8.9 °C 1.1 °C 1022.6 hPa Calm     58 % 0.0 mm 0.0 W/m2 CLR
23:38 8.9 °C 1.3 °C 1022.6 hPa Calm     59 % 0.0 mm 0.0 W/m2 CLR
23:48 8.9 °C 1.3 °C 1022.6 hPa Calm     59 % 0.0 mm 0.0 W/m2 CLR
23:53 8.9 °C 1.3 °C 1022.6 hPa Calm     59 % 0.0 mm 0.0 W/m2 CLR
23:58 8.9 °C 1.3 °C 1022.6 hPa Calm     59 % 0.0 mm 0.0 W/m2 CLR
Lo Temps de Massalio
Compliments of Weather Underground - 1.25 mb